Time;durP1;ratioP1;P1;durP2;ratioP2;P2;SDS_P1;SDS_P2;PMS_P1;PMS_P2;Temp;Humidity;BMP_temperature;BMP_pressure;BME280_temperature;BME280_humidity;BME280_pressure;Samples;Min_cycle;Max_cycle;Signal;HPM_P1;HPM_P2
2021/12/22 00:00:13;;;;;;;12.52;6.90;;;-2.60;99.90;;;;;;5055538;28;20629;-71
2021/12/22 00:02:46;;;;;;;13.98;7.78;;;-2.60;99.90;;;;;;5058094;28;20049;-71
2021/12/22 00:05:26;;;;;;;12.77;7.00;;;-2.70;99.90;;;;;;5054984;28;20048;-71
2021/12/22 00:07:53;;;;;;;16.88;8.13;;;-2.70;99.90;;;;;;5059018;28;20056;-71
2021/12/22 00:10:20;;;;;;;12.57;6.90;;;-2.80;99.90;;;;;;5057906;28;20048;-70
2021/12/22 00:12:48;;;;;;;15.45;7.57;;;-2.80;99.90;;;;;;5057369;28;20178;-71
2021/12/22 00:15:14;;;;;;;14.80;7.53;;;-2.90;99.90;;;;;;5057186;28;20048;-71
2021/12/22 00:17:41;;;;;;;13.55;7.88;;;-3.00;99.90;;;;;;5054345;28;20102;-71
2021/12/22 00:20:09;;;;;;;17.17;8.60;;;-3.00;99.90;;;;;;5091206;28;20095;-70
2021/12/22 00:22:35;;;;;;;14.27;8.18;;;-3.10;99.90;;;;;;5054496;28;20106;-71
2021/12/22 00:25:01;;;;;;;17.38;8.73;;;-3.10;99.90;;;;;;5057023;28;20053;-71
2021/12/22 00:27:26;;;;;;;16.80;9.13;;;-3.10;99.90;;;;;;5055199;28;20103;-71
2021/12/22 00:29:53;;;;;;;19.88;9.45;;;-3.10;99.90;;;;;;5036191;28;20045;-71
2021/12/22 00:32:19;;;;;;;16.90;9.30;;;-3.10;99.90;;;;;;5036897;28;20076;-71
2021/12/22 00:34:51;;;;;;;16.38;9.23;;;-2.80;99.90;;;;;;5034912;28;20060;-71
2021/12/22 00:37:23;;;;;;;16.75;9.20;;;-3.30;99.90;;;;;;5038288;28;20430;-71
2021/12/22 00:39:50;;;;;;;20.77;10.32;;;-3.40;99.90;;;;;;5036508;28;20053;-70
2021/12/22 00:42:16;;;;;;;18.63;9.65;;;-3.40;99.90;;;;;;5070023;28;20056;-71
2021/12/22 00:44:46;;;;;;;22.15;9.50;;;-3.40;99.90;;;;;;5070136;28;20064;-71
2021/12/22 00:47:12;;;;;;;17.58;9.18;;;-3.40;99.90;;;;;;5035101;28;20051;-71
2021/12/22 00:49:39;;;;;;;17.73;9.80;;;-3.40;99.90;;;;;;5037606;28;20049;-71
2021/12/22 00:52:05;;;;;;;19.90;10.18;;;-3.40;99.90;;;;;;5034391;28;20045;-71
2021/12/22 00:54:31;;;;;;;17.13;9.38;;;-3.40;99.90;;;;;;5037661;28;20045;-71
2021/12/22 00:57:04;;;;;;;16.83;8.63;;;-3.40;99.90;;;;;;5035585;28;20087;-71
2021/12/22 00:59:33;;;;;;;17.88;8.85;;;-3.60;99.90;;;;;;5042017;28;20076;-71
2021/12/22 01:02:01;;;;;;;16.30;9.00;;;-3.60;99.90;;;;;;5040935;28;20053;-71
2021/12/22 01:04:27;;;;;;;17.25;9.00;;;-3.60;99.90;;;;;;5072038;28;20069;-71
2021/12/22 01:06:53;;;;;;;23.70;9.35;;;-3.20;99.90;;;;;;5040972;28;20072;-70
2021/12/22 01:09:20;;;;;;;16.98;9.27;;;-3.80;99.90;;;;;;5038912;28;20045;-71
2021/12/22 01:11:45;;;;;;;17.20;9.05;;;-3.70;99.90;;;;;;5040904;28;20055;-71
2021/12/22 01:14:12;;;;;;;21.55;9.75;;;-3.70;99.90;;;;;;5039846;28;20064;-71
2021/12/22 01:16:38;;;;;;;14.38;8.27;;;-3.70;99.90;;;;;;5039876;28;20049;-71
2021/12/22 01:19:11;;;;;;;16.13;8.75;;;-3.70;99.90;;;;;;5023282;28;20054;-71
2021/12/22 01:21:43;;;;;;;17.60;8.68;;;-3.80;99.90;;;;;;5072003;28;20042;-71
2021/12/22 01:24:22;;;;;;;19.00;9.02;;;-3.70;99.90;;;;;;5074269;28;20068;-71
2021/12/22 01:26:53;;;;;;;20.13;9.55;;;-3.70;99.90;;;;;;5039608;28;20067;-71
2021/12/22 01:29:19;;;;;;;14.00;9.02;;;-3.70;99.90;;;;;;5040895;28;20068;-71
2021/12/22 01:31:45;;;;;;;18.58;9.20;;;-3.70;99.90;;;;;;5041043;28;20050;-71
2021/12/22 01:34:11;;;;;;;16.25;8.98;;;-3.70;99.90;;;;;;5039048;28;20057;-71
2021/12/22 01:36:37;;;;;;;17.23;9.15;;;-3.70;99.90;;;;;;5074040;28;20046;-71
2021/12/22 01:39:04;;;;;;;16.90;9.63;;;-3.50;99.90;;;;;;5038176;28;20045;-71
2021/12/22 01:41:30;;;;;;;16.58;8.75;;;-3.80;99.90;;;;;;5057607;28;20049;-70
2021/12/22 01:43:56;;;;;;;16.33;9.38;;;-3.80;99.90;;;;;;5038221;28;20084;-71
2021/12/22 01:49:09;;;;;;;16.15;8.60;;;-4.10;99.90;;;;;;5040370;28;20060;-70
2021/12/22 01:49:49;;;;;;;18.92;10.43;;;-3.80;99.90;;;;;;5041687;28;20406;-70
2021/12/22 01:52:15;;;;;;;17.55;8.90;;;-3.90;99.90;;;;;;5037475;28;20114;-70
2021/12/22 01:55:03;;;;;;;15.63;9.15;;;-3.90;99.90;;;;;;5040334;28;20041;-71
2021/12/22 01:57:31;;;;;;;15.63;8.65;;;-3.80;99.90;;;;;;5039272;28;20049;-71
2021/12/22 01:59:57;;;;;;;15.23;8.60;;;-3.80;99.90;;;;;;5039785;28;20049;-71
2021/12/22 02:02:22;;;;;;;14.50;9.05;;;-3.90;99.90;;;;;;5040570;28;20053;-70
2021/12/22 02:04:48;;;;;;;17.92;9.35;;;-3.90;99.90;;;;;;5037841;28;20056;-70
2021/12/22 02:07:14;;;;;;;14.30;8.70;;;-3.90;99.90;;;;;;5041823;28;20105;-70
2021/12/22 02:12:27;;;;;;;16.67;8.18;;;-3.90;99.90;;;;;;5039281;28;20046;-70
2021/12/22 02:14:53;;;;;;;15.70;9.70;;;-3.90;99.90;;;;;;5039873;28;20077;-70
2021/12/22 02:17:18;;;;;;;17.23;9.45;;;-4.00;99.90;;;;;;5037470;28;20072;-70
2021/12/22 02:19:49;;;;;;;17.67;8.75;;;-4.00;99.90;;;;;;5040275;28;20046;-70
2021/12/22 02:22:17;;;;;;;17.27;9.60;;;-4.00;99.90;;;;;;5070535;28;20504;-69
2021/12/22 02:24:57;;;;;;;19.45;10.05;;;-4.00;99.90;;;;;;5040187;28;20056;-70
2021/12/22 02:27:39;;;;;;;39.28;9.40;;;-3.50;99.90;;;;;;5072463;28;20061;-70
2021/12/22 02:30:13;;;;;;;18.02;9.60;;;-4.40;99.90;;;;;;5037054;28;20057;-70
2021/12/22 02:33:19;;;;;;;15.93;8.35;;;-3.90;99.90;;;;;;5072763;28;20132;-70
2021/12/22 02:35:46;;;;;;;16.92;9.23;;;-3.90;99.90;;;;;;5023328;28;20108;-70
2021/12/22 02:38:16;;;;;;;18.25;9.25;;;-4.00;99.90;;;;;;5038692;28;20052;-70
2021/12/22 02:40:45;;;;;;;17.65;9.75;;;-4.00;99.90;;;;;;5040832;28;20059;-70
2021/12/22 02:43:11;;;;;;;18.00;9.88;;;-4.00;99.90;;;;;;5038251;28;20089;-70
2021/12/22 02:45:37;;;;;;;20.75;10.02;;;-4.00;99.90;;;;;;5039752;28;20088;-70
2021/12/22 02:48:05;;;;;;;19.67;9.50;;;-3.80;99.90;;;;;;5036371;28;20045;-70
2021/12/22 02:50:32;;;;;;;21.88;10.43;;;-4.00;99.90;;;;;;5041162;28;20079;-70
2021/12/22 02:53:05;;;;;;;18.95;9.23;;;-4.00;99.90;;;;;;5039239;28;20048;-70
2021/12/22 02:56:01;;;;;;;18.58;8.90;;;-4.00;99.90;;;;;;5039407;28;20053;-70
2021/12/22 02:58:34;;;;;;;19.35;10.93;;;-4.00;99.90;;;;;;5038975;28;20052;-70
2021/12/22 03:06:41;;;;;;;21.40;11.48;;;-4.10;99.90;;;;;;5039027;28;20080;-70
2021/12/22 03:09:25;;;;;;;20.60;10.43;;;-4.10;99.90;;;;;;5009622;28;20053;-70
2021/12/22 03:11:52;;;;;;;20.25;10.82;;;-4.10;99.90;;;;;;5040537;28;20573;-70
2021/12/22 03:14:19;;;;;;;23.88;11.32;;;-4.00;99.90;;;;;;5070891;28;20045;-69
2021/12/22 03:16:45;;;;;;;25.15;12.13;;;-4.00;99.90;;;;;;5037892;28;20057;-70
2021/12/22 03:19:17;;;;;;;22.15;10.50;;;-4.00;99.90;;;;;;5037591;28;20105;-70
2021/12/22 03:21:44;;;;;;;24.42;10.90;;;-4.70;99.90;;;;;;5035861;28;20150;-70
2021/12/22 03:24:12;;;;;;;21.40;11.02;;;-4.00;99.90;;;;;;5071961;28;20060;-70
2021/12/22 03:26:42;;;;;;;25.30;11.63;;;-4.00;99.90;;;;;;5069247;28;20394;-70
2021/12/22 03:29:12;;;;;;;23.02;12.18;;;-4.00;99.90;;;;;;5040438;28;20053;-70
2021/12/22 03:31:39;;;;;;;25.40;12.13;;;-4.10;99.90;;;;;;5037275;28;20054;-70
2021/12/22 03:34:05;;;;;;;24.30;12.20;;;-4.10;99.90;;;;;;5070427;28;20460;-70
2021/12/22 03:36:31;;;;;;;21.98;10.93;;;-4.10;99.90;;;;;;5071545;28;20434;-70
2021/12/22 03:38:57;;;;;;;27.25;11.75;;;-4.10;99.90;;;;;;5069478;28;20045;-71
2021/12/22 03:41:23;;;;;;;22.70;12.18;;;-4.20;99.90;;;;;;5071834;28;20649;-70
2021/12/22 03:43:48;;;;;;;21.50;11.30;;;-4.10;99.90;;;;;;5035716;28;20094;-70
2021/12/22 03:46:15;;;;;;;25.60;11.82;;;-4.20;99.90;;;;;;5038220;28;20046;-71
2021/12/22 03:48:42;;;;;;;24.23;11.75;;;-4.20;99.90;;;;;;5036435;28;20069;-70
2021/12/22 03:51:08;;;;;;;27.80;12.68;;;-4.20;99.90;;;;;;5036879;28;20038;-71
2021/12/22 03:53:34;;;;;;;22.92;11.73;;;-4.20;99.90;;;;;;5071079;28;20080;-71
2021/12/22 03:56:00;;;;;;;26.58;12.85;;;-4.20;99.90;;;;;;5068985;28;20049;-70
2021/12/22 03:58:26;;;;;;;25.05;12.07;;;-4.10;99.90;;;;;;5071146;28;20056;-70
2021/12/22 04:00:54;;;;;;;26.08;13.02;;;-4.10;99.90;;;;;;5052156;28;20154;-71
2021/12/22 04:03:23;;;;;;;20.60;10.98;;;-4.10;99.90;;;;;;5038157;28;20059;-70
2021/12/22 04:05:49;;;;;;;25.08;11.52;;;-4.10;99.90;;;;;;5020039;28;20057;-70
2021/12/22 04:08:17;;;;;;;24.85;11.10;;;-4.10;99.90;;;;;;5069890;28;20049;-71
2021/12/22 04:10:44;;;;;;;23.88;12.38;;;-4.20;99.90;;;;;;5039082;28;20037;-71
2021/12/22 04:13:10;;;;;;;26.98;12.23;;;-4.30;99.90;;;;;;5051934;28;20080;-71
2021/12/22 04:15:36;;;;;;;23.35;12.38;;;-4.30;99.90;;;;;;5054929;28;20048;-71
2021/12/22 04:18:02;;;;;;;25.58;12.18;;;-4.30;99.90;;;;;;5067905;28;20560;-71
2021/12/22 04:20:29;;;;;;;25.23;12.80;;;-4.40;99.90;;;;;;5039312;28;20065;-70
2021/12/22 04:22:56;;;;;;;22.95;11.52;;;-4.40;99.90;;;;;;5035716;28;20124;-70
2021/12/22 04:25:22;;;;;;;21.63;11.50;;;-4.40;99.90;;;;;;5036021;28;20431;-71
2021/12/22 04:27:50;;;;;;;25.60;12.18;;;-4.40;99.90;;;;;;5037703;28;20045;-70
2021/12/22 04:30:15;;;;;;;24.20;12.63;;;-4.40;99.90;;;;;;5018954;28;20096;-70
2021/12/22 04:32:41;;;;;;;27.10;12.98;;;-4.40;99.90;;;;;;5038639;28;20623;-70
2021/12/22 04:35:07;;;;;;;26.45;13.05;;;-4.30;99.90;;;;;;5051687;28;20041;-71
2021/12/22 04:37:33;;;;;;;26.58;12.63;;;-4.30;99.90;;;;;;5070907;28;20049;-70
2021/12/22 04:39:59;;;;;;;26.30;11.75;;;-4.30;99.90;;;;;;5037290;28;20176;-70
2021/12/22 04:42:24;;;;;;;26.10;12.38;;;-4.40;99.90;;;;;;5036397;28;20076;-70
2021/12/22 04:44:53;;;;;;;28.33;13.10;;;-4.40;99.90;;;;;;5037345;28;20060;-70
2021/12/22 04:47:20;;;;;;;23.08;11.02;;;-4.30;99.90;;;;;;5035413;28;20481;-71
2021/12/22 04:49:46;;;;;;;26.27;12.60;;;-4.30;99.90;;;;;;5037527;28;20417;-70
2021/12/22 04:52:16;;;;;;;23.75;12.95;;;-4.30;99.90;;;;;;5067948;28;20053;-70
2021/12/22 04:55:02;;;;;;;25.25;12.48;;;-4.30;99.90;;;;;;5037622;28;20046;-70
2021/12/22 04:57:30;;;;;;;23.07;11.70;;;-4.30;99.90;;;;;;5023102;28;20054;-70
2021/12/22 04:59:56;;;;;;;26.77;11.65;;;-4.40;99.90;;;;;;5068579;28;20049;-70
2021/12/22 05:02:21;;;;;;;19.33;11.90;;;-4.40;99.90;;;;;;5036902;28;20513;-70
2021/12/22 05:04:47;;;;;;;19.95;10.68;;;-4.50;99.90;;;;;;5067545;28;20128;-70
2021/12/22 05:07:13;;;;;;;21.50;11.10;;;-4.50;99.90;;;;;;5037174;28;20049;-70
2021/12/22 05:09:39;;;;;;;24.88;11.70;;;-4.60;99.90;;;;;;5068440;28;20052;-70
2021/12/22 05:12:05;;;;;;;23.25;12.15;;;-4.60;99.90;;;;;;5036548;28;20049;-70
2021/12/22 05:14:31;;;;;;;25.95;11.43;;;-4.70;99.90;;;;;;5052684;28;20052;-70
2021/12/22 05:17:01;;;;;;;28.10;12.40;;;-4.60;99.90;;;;;;5018943;28;20045;-71
2021/12/22 05:19:27;;;;;;;20.95;11.20;;;-4.60;99.90;;;;;;5038169;28;20046;-71
2021/12/22 05:21:54;;;;;;;28.05;11.55;;;-4.50;99.90;;;;;;5068274;28;20092;-71
2021/12/22 05:24:20;;;;;;;23.50;11.43;;;-4.50;99.90;;;;;;5070628;28;20125;-71
2021/12/22 05:26:46;;;;;;;21.38;11.60;;;-4.50;99.90;;;;;;5034389;28;20056;-71
2021/12/22 05:29:14;;;;;;;23.58;11.55;;;-4.50;99.90;;;;;;5020581;28;20054;-71
2021/12/22 05:31:40;;;;;;;25.65;12.90;;;-4.40;99.90;;;;;;5052666;28;20048;-71
2021/12/22 05:34:06;;;;;;;23.95;11.75;;;-4.40;99.90;;;;;;5035530;28;20045;-70
2021/12/22 05:36:32;;;;;;;22.55;11.70;;;-4.40;99.90;;;;;;5037077;28;20041;-70
2021/12/22 05:38:58;;;;;;;20.05;10.30;;;-4.40;99.90;;;;;;5034191;28;20045;-71
2021/12/22 05:41:24;;;;;;;22.48;11.40;;;-4.30;99.90;;;;;;5069790;28;20132;-71
2021/12/22 05:43:50;;;;;;;25.00;11.27;;;-4.30;99.90;;;;;;5052642;28;20049;-71
2021/12/22 05:46:16;;;;;;;21.02;10.27;;;-4.30;99.90;;;;;;5040681;28;20661;-71
2021/12/22 05:48:44;;;;;;;25.63;11.15;;;-4.30;99.90;;;;;;5038979;28;20132;-70
2021/12/22 05:51:10;;;;;;;23.73;11.50;;;-4.30;99.90;;;;;;5072115;28;20069;-71
2021/12/22 05:53:37;;;;;;;22.15;10.68;;;-4.30;99.90;;;;;;5040465;28;20058;-70
2021/12/22 05:56:04;;;;;;;20.73;11.68;;;-4.30;99.90;;;;;;5054522;28;20080;-71
2021/12/22 05:58:30;;;;;;;20.95;10.77;;;-4.30;99.90;;;;;;5040293;28;20088;-71
2021/12/22 06:00:56;;;;;;;22.50;10.82;;;-4.30;99.90;;;;;;5071016;28;20041;-71
2021/12/22 06:03:22;;;;;;;22.13;11.13;;;-4.30;99.90;;;;;;5040366;28;20049;-71
2021/12/22 06:05:48;;;;;;;24.50;11.77;;;-4.30;99.90;;;;;;5040033;28;20049;-71
2021/12/22 06:08:14;;;;;;;23.33;11.35;;;-4.40;99.90;;;;;;5038965;28;20045;-70
2021/12/22 06:10:40;;;;;;;23.38;11.48;;;-4.40;99.90;;;;;;5023561;28;20068;-71
2021/12/22 06:13:08;;;;;;;21.25;11.07;;;-4.30;99.90;;;;;;5037687;28;20583;-70
2021/12/22 06:15:35;;;;;;;23.73;11.02;;;-4.30;99.90;;;;;;5073669;28;20045;-70
2021/12/22 06:18:02;;;;;;;21.63;10.15;;;-4.30;99.90;;;;;;5037480;28;20046;-71
2021/12/22 06:20:29;;;;;;;24.17;11.32;;;-4.30;99.90;;;;;;5040228;28;20049;-71
2021/12/22 06:22:55;;;;;;;26.70;11.13;;;-4.20;99.90;;;;;;5071432;28;20054;-70
2021/12/22 06:25:22;;;;;;;24.13;9.93;;;-4.20;99.90;;;;;;5038339;28;20065;-71
2021/12/22 06:27:48;;;;;;;20.33;10.55;;;-4.20;99.90;;;;;;5073241;28;20037;-70
2021/12/22 06:30:14;;;;;;;22.17;11.40;;;-4.50;99.90;;;;;;5070952;28;20041;-71
2021/12/22 06:32:40;;;;;;;20.67;10.50;;;-4.20;99.90;;;;;;5041250;28;20501;-70
2021/12/22 06:35:07;;;;;;;21.90;10.90;;;-4.30;99.90;;;;;;5036932;28;20109;-70
2021/12/22 06:37:33;;;;;;;20.88;10.63;;;-4.30;99.90;;;;;;5073236;28;20053;-70
2021/12/22 06:39:59;;;;;;;23.27;10.07;;;-3.10;99.90;;;;;;5037904;28;20395;-71
2021/12/22 06:42:25;;;;;;;22.95;11.23;;;-4.50;99.90;;;;;;5038623;28;20045;-71
2021/12/22 06:44:51;;;;;;;18.27;9.85;;;-4.40;99.90;;;;;;5039466;28;20052;-71
2021/12/22 06:47:17;;;;;;;22.33;10.65;;;-4.50;99.90;;;;;;5036967;28;20045;-71
2021/12/22 06:49:43;;;;;;;21.40;10.82;;;-4.50;99.90;;;;;;5039025;28;20049;-71
2021/12/22 06:52:09;;;;;;;19.33;9.93;;;-4.50;99.90;;;;;;5036621;28;20083;-71
2021/12/22 06:54:34;;;;;;;17.17;9.65;;;-4.50;99.90;;;;;;5038962;28;20101;-70
2021/12/22 06:57:00;;;;;;;21.30;10.60;;;-4.40;99.90;;;;;;5020467;28;20042;-71
2021/12/22 06:59:26;;;;;;;16.25;9.55;;;-4.50;99.90;;;;;;5038161;28;20049;-71
2021/12/22 07:01:52;;;;;;;22.00;11.98;;;-4.50;99.90;;;;;;5038589;28;20057;-70
2021/12/22 07:04:19;;;;;;;18.30;9.50;;;-4.50;99.90;;;;;;5037074;28;20046;-71
2021/12/22 07:06:45;;;;;;;20.00;10.52;;;-4.60;99.90;;;;;;5072732;28;20568;-70
2021/12/22 07:09:11;;;;;;;21.95;10.23;;;-4.60;99.90;;;;;;5070171;28;20041;-71
2021/12/22 07:11:37;;;;;;;20.15;9.82;;;-4.60;99.90;;;;;;5072608;28;20076;-71
2021/12/22 07:14:06;;;;;;;20.88;10.75;;;-4.60;99.90;;;;;;5038322;28;20074;-71
2021/12/22 07:16:32;;;;;;;18.10;9.88;;;-4.60;99.90;;;;;;5071254;28;20052;-71
2021/12/22 07:18:58;;;;;;;20.25;10.38;;;-4.70;99.90;;;;;;5021720;28;20049;-71
2021/12/22 07:21:24;;;;;;;20.83;10.52;;;-4.70;99.90;;;;;;5069783;28;20055;-70
2021/12/22 07:23:50;;;;;;;22.70;11.07;;;-4.60;99.90;;;;;;5055266;28;20061;-71
2021/12/22 07:26:16;;;;;;;23.65;10.93;;;-4.60;99.90;;;;;;5035799;28;20053;-71
2021/12/22 07:28:48;;;;;;;21.02;10.40;;;-4.60;99.90;;;;;;5055807;28;20512;-71
2021/12/22 07:31:15;;;;;;;20.23;11.07;;;-4.60;99.90;;;;;;5069758;28;20056;-70
2021/12/22 07:33:59;;;;;;;19.52;10.48;;;-4.50;99.90;;;;;;5037078;28;20057;-71
2021/12/22 07:36:25;;;;;;;18.85;10.00;;;-4.50;99.90;;;;;;5038582;28;20110;-71
2021/12/22 07:38:59;;;;;;;19.98;10.98;;;-4.40;99.90;;;;;;5052917;28;20053;-71
2021/12/22 07:41:26;;;;;;;21.88;10.80;;;-4.00;99.90;;;;;;5072153;28;20042;-71
2021/12/22 07:43:52;;;;;;;20.90;10.35;;;-4.40;99.90;;;;;;5019623;28;20046;-71
2021/12/22 07:46:18;;;;;;;21.75;11.20;;;-4.20;99.90;;;;;;5037801;28;20103;-71
2021/12/22 07:48:44;;;;;;;21.42;10.55;;;-4.30;99.90;;;;;;5038131;28;20068;-71
2021/12/22 07:51:10;;;;;;;20.10;10.27;;;-3.90;99.90;;;;;;5037951;28;20060;-71
2021/12/22 07:53:36;;;;;;;29.60;11.52;;;-4.40;99.90;;;;;;5071286;28;20107;-71
2021/12/22 07:56:02;;;;;;;18.40;9.73;;;-4.40;99.90;;;;;;5019378;28;20464;-71
2021/12/22 07:58:28;;;;;;;24.70;11.48;;;-4.40;99.90;;;;;;5038451;28;20053;-71
2021/12/22 08:00:55;;;;;;;21.85;11.38;;;-4.50;99.90;;;;;;5036805;28;20112;-71
2021/12/22 08:03:21;;;;;;;22.70;10.57;;;-4.50;99.90;;;;;;5071525;28;20413;-71
2021/12/22 08:05:47;;;;;;;42.15;11.85;;;-4.50;99.90;;;;;;5069711;28;20053;-71
2021/12/22 08:08:13;;;;;;;26.50;11.65;;;-4.50;99.90;;;;;;5036551;28;20100;-71
2021/12/22 08:10:41;;;;;;;21.20;10.88;;;-4.40;99.90;;;;;;5070914;28;20087;-71
2021/12/22 08:13:07;;;;;;;21.63;9.93;;;-4.30;99.90;;;;;;5029175;28;20131;-71
2021/12/22 08:15:33;;;;;;;23.30;10.70;;;-4.30;99.90;;;;;;5071247;28;20044;-71
2021/12/22 08:17:58;;;;;;;24.52;10.85;;;-4.40;99.90;;;;;;5065024;28;20045;-71
2021/12/22 08:20:25;;;;;;;17.73;9.73;;;-4.20;99.90;;;;;;5036982;28;20093;-71
2021/12/22 08:22:51;;;;;;;23.48;11.05;;;-4.20;99.90;;;;;;5035478;28;20067;-70
2021/12/22 08:25:17;;;;;;;23.15;10.55;;;-4.10;99.90;;;;;;5019811;28;20085;-71
2021/12/22 08:27:43;;;;;;;22.58;10.95;;;;;;;;;;5053367;28;20038;-71
2021/12/22 08:30:09;;;;;;;27.30;11.70;;;-4.00;99.90;;;;;;5035175;28;20041;-71
2021/12/22 08:32:35;;;;;;;21.73;10.77;;;-3.90;99.90;;;;;;5070184;28;20566;-71
2021/12/22 08:35:04;;;;;;;23.60;11.07;;;-3.80;99.90;;;;;;5034696;28;20108;-71
2021/12/22 08:40:17;;;;;;;22.40;10.80;;;-3.70;99.90;;;;;;5037248;28;20528;-71
2021/12/22 08:42:44;;;;;;;22.75;10.55;;;-3.70;99.90;;;;;;5034159;28;20115;-71
2021/12/22 08:45:10;;;;;;;22.92;10.63;;;-3.60;99.90;;;;;;5070693;28;20122;-71
2021/12/22 08:47:37;;;;;;;20.45;11.32;;;-3.60;99.90;;;;;;5067783;28;20053;-71
2021/12/22 08:50:04;;;;;;;28.50;11.23;;;-3.50;99.90;;;;;;5069581;28;20034;-71
2021/12/22 08:52:30;;;;;;;23.02;11.15;;;-3.40;99.90;;;;;;5034270;28;20053;-71
2021/12/22 08:54:56;;;;;;;21.40;11.70;;;-3.40;99.90;;;;;;5053549;28;20075;-71
2021/12/22 08:57:22;;;;;;;20.92;11.60;;;-3.30;99.90;;;;;;5052591;28;20063;-70
2021/12/22 08:59:47;;;;;;;22.08;10.63;;;-3.20;99.90;;;;;;5051727;28;20079;-71
2021/12/22 09:02:13;;;;;;;25.85;13.07;;;-3.10;99.90;;;;;;5053091;28;20060;-71
2021/12/22 09:04:39;;;;;;;23.85;10.88;;;-2.30;99.90;;;;;;5033860;28;20049;-72
2021/12/22 09:07:05;;;;;;;23.65;11.68;;;-3.00;99.90;;;;;;5037408;28;20043;-71
2021/12/22 09:09:31;;;;;;;23.83;12.23;;;-3.00;99.90;;;;;;5051350;28;20622;-72
2021/12/22 09:11:56;;;;;;;26.60;13.23;;;-2.90;99.90;;;;;;5036389;28;20092;-71
2021/12/22 09:14:24;;;;;;;31.42;13.85;;;-2.70;99.90;;;;;;5037025;28;20096;-71
2021/12/22 09:16:50;;;;;;;27.30;13.23;;;-2.80;99.90;;;;;;5068774;28;20111;-71
2021/12/22 09:19:16;;;;;;;24.90;12.80;;;-2.80;99.90;;;;;;5038905;28;20119;-71
2021/12/22 09:21:42;;;;;;;24.63;10.88;;;-2.70;99.90;;;;;;5038533;28;20042;-72
2021/12/22 09:24:08;;;;;;;24.67;11.93;;;-2.60;99.90;;;;;;5074124;28;20041;-71
2021/12/22 09:26:34;;;;;;;23.05;11.15;;;-2.60;99.90;;;;;;5021087;28;20080;-71
2021/12/22 09:29:00;;;;;;;21.02;10.70;;;-2.50;99.90;;;;;;5040302;28;20052;-72
2021/12/22 09:31:26;;;;;;;22.60;11.07;;;-2.50;99.90;;;;;;5072230;28;20095;-71
2021/12/22 09:33:52;;;;;;;20.55;11.07;;;-2.50;99.90;;;;;;5072242;28;20041;-72
2021/12/22 09:36:19;;;;;;;24.25;12.13;;;-2.50;99.90;;;;;;5024375;28;20056;-71
2021/12/22 09:38:45;;;;;;;28.88;12.38;;;-2.50;99.90;;;;;;5071566;28;20073;-71
2021/12/22 09:41:12;;;;;;;23.38;13.00;;;-2.50;99.90;;;;;;5073338;28;20037;-71
2021/12/22 09:43:38;;;;;;;23.50;12.07;;;-2.40;99.90;;;;;;5069826;28;20041;-71
2021/12/22 09:46:09;;;;;;;22.95;11.77;;;-2.00;99.90;;;;;;5039841;28;20046;-71
2021/12/22 09:53:39;;;;;;;25.77;12.57;;;-2.30;99.90;;;;;;5041177;28;20083;-71
2021/12/22 09:56:06;;;;;;;25.80;11.63;;;-2.20;99.90;;;;;;5036941;28;20048;-72
2021/12/22 09:58:35;;;;;;;26.85;12.77;;;-2.10;99.90;;;;;;5040543;28;20065;-72
2021/12/22 10:01:01;;;;;;;25.67;12.00;;;-1.90;99.90;;;;;;5021417;28;20076;-72
2021/12/22 10:03:27;;;;;;;33.47;13.07;;;-1.80;99.90;;;;;;5041783;28;20041;-72
2021/12/22 10:05:53;;;;;;;28.17;13.77;;;-1.40;99.90;;;;;;5022353;28;20041;-72
2021/12/22 10:08:23;;;;;;;30.45;12.75;;;-1.60;99.90;;;;;;5069880;28;20041;-72
2021/12/22 10:11:06;;;;;;;24.42;11.95;;;-1.40;99.90;;;;;;5041164;28;20057;-72
2021/12/22 10:13:33;;;;;;;24.50;13.48;;;-1.30;99.90;;;;;;5067988;28;20048;-72
2021/12/22 10:16:09;;;;;;;24.55;11.38;;;-1.20;99.90;;;;;;5074699;28;20041;-72
2021/12/22 10:18:34;;;;;;;23.60;12.67;;;-1.10;99.90;;;;;;5044683;28;20385;-71
2021/12/22 10:21:21;;;;;;;29.48;12.35;;;-1.00;99.90;;;;;;5032050;28;20054;-72
2021/12/22 10:23:54;;;;;;;21.27;11.18;;;-0.80;99.90;;;;;;5069731;28;20049;-71
2021/12/22 10:26:23;;;;;;;26.58;11.10;;;-0.60;99.90;;;;;;5071200;28;20156;-72
2021/12/22 10:28:49;;;;;;;26.20;11.98;;;-0.30;99.90;;;;;;5075309;28;20064;-72
2021/12/22 10:31:15;;;;;;;21.90;10.85;;;0.10;99.90;;;;;;5070171;28;20042;-72
2021/12/22 10:33:42;;;;;;;23.83;11.02;;;0.40;99.90;;;;;;5064592;28;20033;-72
2021/12/22 10:36:18;;;;;;;23.02;11.40;;;0.60;99.90;;;;;;5042436;28;20068;-71
2021/12/22 10:38:59;;;;;;;20.85;10.52;;;0.80;99.90;;;;;;5069725;28;20071;-72
2021/12/22 10:41:28;;;;;;;23.38;11.35;;;1.00;99.90;;;;;;5037965;28;20489;-71
2021/12/22 10:43:54;;;;;;;23.70;11.65;;;1.10;99.90;;;;;;5036322;28;20058;-72
2021/12/22 10:46:38;;;;;;;25.50;12.10;;;1.60;99.90;;;;;;5038565;28;20137;-72
2021/12/22 10:49:19;;;;;;;23.48;10.82;;;1.20;99.90;;;;;;5038682;28;20148;-71
2021/12/22 10:51:58;;;;;;;22.75;11.07;;;1.40;99.90;;;;;;5036665;28;20072;-72
2021/12/22 10:54:38;;;;;;;22.98;11.70;;;1.30;99.90;;;;;;5071724;28;20049;-71
2021/12/22 10:57:09;;;;;;;25.67;12.27;;;1.10;99.90;;;;;;5037774;28;20540;-72
2021/12/22 10:59:45;;;;;;;23.33;11.48;;;0.90;99.90;;;;;;5037814;28;20052;-72
2021/12/22 11:02:18;;;;;;;23.65;11.55;;;0.80;99.90;;;;;;5038177;28;20499;-71
2021/12/22 11:04:45;;;;;;;23.00;11.52;;;0.70;99.90;;;;;;5035962;28;20080;-71
2021/12/22 11:07:26;;;;;;;23.42;11.38;;;0.60;99.90;;;;;;5038995;28;20057;-71
2021/12/22 11:09:52;;;;;;;24.90;11.55;;;0.40;99.90;;;;;;5037504;28;20559;-71
2021/12/22 11:12:34;;;;;;;24.70;12.57;;;0.30;99.90;;;;;;5053897;28;20129;-71
2021/12/22 11:15:00;;;;;;;21.80;11.15;;;0.20;99.90;;;;;;5038719;28;20045;-71
2021/12/22 11:17:25;;;;;;;22.65;10.38;;;0.10;99.90;;;;;;5036017;28;20053;-72
2021/12/22 11:19:57;;;;;;;22.65;11.85;;;0.10;99.90;;;;;;5054712;28;20076;-71
2021/12/22 11:23:08;;;;;;;18.88;10.05;;;0.20;99.90;;;;;;5069084;28;20048;-71
2021/12/22 11:25:34;;;;;;;18.17;10.20;;;0.30;99.90;;;;;;5069050;28;20057;-71
2021/12/22 11:27:59;;;;;;;20.08;10.52;;;0.30;99.90;;;;;;5071786;28;20053;-71
2021/12/22 11:30:27;;;;;;;21.45;10.02;;;0.60;99.90;;;;;;5034945;28;20094;-72
2021/12/22 11:32:55;;;;;;;22.58;9.68;;;0.40;99.90;;;;;;5070575;28;20045;-72
2021/12/22 11:35:21;;;;;;;22.63;9.82;;;0.40;99.90;;;;;;5036096;28;20088;-71
2021/12/22 11:37:47;;;;;;;20.33;8.75;;;0.70;99.90;;;;;;5037958;28;20083;-71
2021/12/22 11:40:17;;;;;;;19.30;9.68;;;0.40;99.90;;;;;;5020414;28;20460;-71
2021/12/22 11:42:43;;;;;;;18.60;9.13;;;0.40;99.90;;;;;;5068573;28;20049;-72
2021/12/22 11:45:21;;;;;;;16.30;8.27;;;0.40;99.90;;;;;;5071266;28;20049;-72
2021/12/22 11:47:53;;;;;;;17.92;8.68;;;0.30;99.90;;;;;;5018555;28;20052;-72
2021/12/22 11:50:31;;;;;;;19.08;8.48;;;0.30;99.90;;;;;;5071059;28;20104;-72
2021/12/22 11:53:02;;;;;;;17.55;9.68;;;0.80;99.90;;;;;;5069978;28;20619;-71
2021/12/22 11:55:39;;;;;;;17.10;8.80;;;0.30;99.90;;;;;;5069224;28;20041;-71
2021/12/22 11:58:33;;;;;;;17.83;9.25;;;0.20;99.90;;;;;;5037655;28;20037;-72
2021/12/22 12:01:08;;;;;;;17.48;8.93;;;0.20;99.90;;;;;;5018669;28;20076;-72
2021/12/22 12:03:36;;;;;;;20.35;9.90;;;0.20;99.90;;;;;;5070490;28;20539;-72
2021/12/22 12:06:17;;;;;;;18.13;8.82;;;0.60;99.90;;;;;;5037313;28;20053;-71
2021/12/22 12:08:53;;;;;;;16.05;9.50;;;0.10;99.90;;;;;;5068674;28;20440;-72
2021/12/22 12:11:55;;;;;;;;;;;0.10;99.90;;;;;;5038345;28;20051;-71
2021/12/22 12:15:02;;;;;;;18.80;9.38;;;0.10;99.90;;;;;;5037111;28;19929;-71
2021/12/22 12:23:29;;;;;;;18.80;9.30;;;0.20;99.90;;;;;;5022783;28;20045;-71
2021/12/22 12:25:57;;;;;;;22.38;9.40;;;0.20;99.90;;;;;;5051051;28;20057;-71
2021/12/22 12:28:24;;;;;;;19.05;9.80;;;0.20;99.90;;;;;;5037720;28;20053;-71
2021/12/22 12:30:55;;;;;;;15.63;9.27;;;0.10;99.90;;;;;;5034445;28;20544;-71
2021/12/22 12:33:30;;;;;;;17.33;8.95;;;0.70;99.90;;;;;;5070566;28;20076;-71
2021/12/22 12:36:03;;;;;;;19.65;9.90;;;0.20;99.90;;;;;;5020181;28;20056;-71
2021/12/22 12:38:55;;;;;;;22.30;11.00;;;0.30;99.90;;;;;;5034530;28;20121;-71
2021/12/22 12:41:28;;;;;;;19.63;9.48;;;0.30;99.90;;;;;;5038768;28;20416;-71
2021/12/22 12:44:02;;;;;;;16.70;9.15;;;0.40;99.90;;;;;;5036463;28;20120;-71
2021/12/22 12:46:40;;;;;;;18.75;8.95;;;0.50;99.90;;;;;;5004805;28;20057;-71
2021/12/22 12:49:08;;;;;;;19.10;9.52;;;0.90;99.90;;;;;;5053655;28;20045;-71
2021/12/22 12:51:41;;;;;;;20.77;9.50;;;1.00;99.90;;;;;;5034151;28;20068;-71
2021/12/22 12:54:21;;;;;;;18.75;9.45;;;1.10;99.90;;;;;;5037100;28;20045;-71
2021/12/22 12:57:01;;;;;;;16.77;8.95;;;1.10;99.90;;;;;;5036766;28;20401;-71
2021/12/22 12:59:39;;;;;;;20.55;9.50;;;1.10;99.90;;;;;;5035844;28;20054;-71
2021/12/22 13:02:20;;;;;;;16.50;9.20;;;1.10;99.90;;;;;;5036817;28;20526;-71
2021/12/22 13:04:46;;;;;;;16.73;9.30;;;1.10;99.90;;;;;;5034715;28;20057;-71